createdAt,value
2019-03-31T00:00:04.136Z,0.00
2019-03-31T00:01:08.369Z,0.00
2019-03-31T00:02:04.130Z,0.00
2019-03-31T00:03:04.122Z,0.00
2019-03-31T00:04:04.117Z,0.00
2019-03-31T00:05:04.112Z,0.00
2019-03-31T00:06:04.113Z,0.00
2019-03-31T00:07:04.103Z,0.00
2019-03-31T00:08:04.100Z,0.00
2019-03-31T00:09:04.096Z,0.00
2019-03-31T00:10:04.089Z,0.00
2019-03-31T00:11:04.086Z,0.00
2019-03-31T00:12:04.078Z,0.00
2019-03-31T00:13:04.074Z,0.00
2019-03-31T00:14:04.070Z,0.00
2019-03-31T00:15:04.064Z,0.00
2019-03-31T00:16:04.061Z,0.00
2019-03-31T00:17:04.054Z,0.00
2019-03-31T00:18:04.048Z,0.00
2019-03-31T00:19:04.045Z,0.00
2019-03-31T00:20:04.041Z,0.00
2019-03-31T00:21:04.035Z,0.00
2019-03-31T00:22:04.028Z,0.00
2019-03-31T00:23:04.025Z,0.00
2019-03-31T00:24:04.019Z,0.00
2019-03-31T00:25:04.016Z,0.00
2019-03-31T00:26:04.014Z,0.00
2019-03-31T00:27:04.008Z,0.00
2019-03-31T00:28:04.001Z,0.00
2019-03-31T00:29:03.998Z,0.00
2019-03-31T00:30:03.990Z,0.00
2019-03-31T00:31:03.987Z,0.00
2019-03-31T00:32:04.062Z,0.00
2019-03-31T00:33:03.973Z,0.00
2019-03-31T00:34:03.969Z,0.00
2019-03-31T00:35:03.983Z,0.00
2019-03-31T00:36:03.968Z,0.00
2019-03-31T00:37:03.955Z,0.00
2019-03-31T00:38:03.948Z,0.00
2019-03-31T00:39:03.943Z,0.00
2019-03-31T00:40:03.936Z,0.00
2019-03-31T00:41:03.931Z,0.00
2019-03-31T00:42:03.926Z,0.00
2019-03-31T00:43:03.922Z,0.00
2019-03-31T00:44:03.918Z,0.00
2019-03-31T00:45:03.910Z,0.00
2019-03-31T00:46:03.906Z,0.00
2019-03-31T00:47:03.904Z,0.00
2019-03-31T00:48:03.897Z,0.00
2019-03-31T00:49:03.892Z,0.00
2019-03-31T00:50:03.885Z,0.00
2019-03-31T00:51:03.885Z,0.00
2019-03-31T00:52:03.873Z,0.00
2019-03-31T00:53:03.869Z,0.00
2019-03-31T00:54:03.862Z,0.00
2019-03-31T00:55:03.858Z,0.00
2019-03-31T00:56:03.855Z,0.00
2019-03-31T00:57:03.847Z,0.00
2019-03-31T00:58:03.844Z,0.00
2019-03-31T00:59:03.841Z,0.00
2019-03-31T01:00:03.832Z,0.00
2019-03-31T01:01:03.825Z,0.00
2019-03-31T01:02:03.820Z,0.00
2019-03-31T01:03:03.815Z,0.00
2019-03-31T01:04:03.810Z,0.00
2019-03-31T01:05:03.806Z,0.00
2019-03-31T01:06:03.801Z,0.00
2019-03-31T01:07:03.794Z,0.00
2019-03-31T01:08:03.794Z,0.00
2019-03-31T01:09:03.786Z,0.00
2019-03-31T01:10:03.780Z,0.00
2019-03-31T01:11:03.771Z,0.00
2019-03-31T01:12:03.853Z,0.00
2019-03-31T01:13:03.760Z,0.00
2019-03-31T01:14:03.755Z,0.00
2019-03-31T01:15:03.753Z,0.00
2019-03-31T01:16:03.743Z,0.00
2019-03-31T01:17:03.738Z,0.00
2019-03-31T01:18:03.734Z,0.00
2019-03-31T01:19:03.730Z,0.00
2019-03-31T01:20:03.722Z,0.00
2019-03-31T01:21:03.716Z,0.00
2019-03-31T01:22:03.712Z,0.00
2019-03-31T01:23:03.705Z,0.00
2019-03-31T01:24:03.701Z,0.00
2019-03-31T01:25:03.697Z,0.00
2019-03-31T01:26:03.689Z,0.00
2019-03-31T01:27:03.689Z,0.00
2019-03-31T01:28:03.676Z,0.00
2019-03-31T01:29:03.672Z,0.00
2019-03-31T01:30:03.670Z,0.00
2019-03-31T01:31:03.663Z,0.00
2019-03-31T01:32:03.662Z,0.00
2019-03-31T01:33:03.650Z,0.00
2019-03-31T01:34:03.646Z,0.00
2019-03-31T01:35:03.642Z,0.00
2019-03-31T01:36:03.632Z,0.00
2019-03-31T01:37:03.628Z,0.00
2019-03-31T01:38:03.623Z,0.00
2019-03-31T01:39:03.614Z,0.00
2019-03-31T01:40:03.609Z,0.00
2019-03-31T01:41:03.605Z,0.00
2019-03-31T01:42:03.598Z,0.00
2019-03-31T01:43:03.592Z,0.00
2019-03-31T01:44:03.593Z,0.00
2019-03-31T01:45:03.580Z,0.00
2019-03-31T01:46:03.578Z,0.00
2019-03-31T01:47:03.570Z,0.00
2019-03-31T01:48:03.565Z,0.00
2019-03-31T01:49:03.561Z,0.00
2019-03-31T01:50:03.554Z,0.00
2019-03-31T01:51:03.550Z,0.00
2019-03-31T01:52:03.542Z,0.00
2019-03-31T01:53:03.542Z,0.00
2019-03-31T01:54:03.532Z,0.00
2019-03-31T01:55:03.525Z,0.00
2019-03-31T01:56:03.517Z,0.00
2019-03-31T01:57:03.511Z,0.00
2019-03-31T01:58:03.506Z,0.00
2019-03-31T01:59:03.501Z,0.00
2019-03-31T02:00:03.496Z,0.00
2019-03-31T02:01:03.499Z,0.00
2019-03-31T02:02:04.664Z,0.00
2019-03-31T02:03:03.480Z,0.00
2019-03-31T02:04:03.480Z,0.00
2019-03-31T02:05:03.465Z,0.00
2019-03-31T02:06:03.460Z,0.00
2019-03-31T02:07:03.457Z,0.00
2019-03-31T02:08:03.450Z,0.00
2019-03-31T02:09:03.440Z,0.00
2019-03-31T02:10:03.440Z,0.00
2019-03-31T02:11:03.430Z,0.00
2019-03-31T02:12:03.425Z,0.00
2019-03-31T02:13:03.419Z,0.00
2019-03-31T02:14:03.413Z,0.00
2019-03-31T02:15:03.406Z,0.00
2019-03-31T02:16:03.403Z,0.00
2019-03-31T02:17:03.397Z,0.00
2019-03-31T02:18:03.394Z,0.00
2019-03-31T02:19:03.385Z,0.00
2019-03-31T02:20:03.375Z,0.00
2019-03-31T02:21:03.370Z,0.00
2019-03-31T02:22:03.372Z,0.00
2019-03-31T02:23:03.364Z,0.00
2019-03-31T02:24:03.351Z,0.00
2019-03-31T02:25:03.355Z,0.00
2019-03-31T02:26:03.344Z,0.00
2019-03-31T02:27:03.341Z,0.00
2019-03-31T02:28:03.333Z,0.00
2019-03-31T02:29:03.325Z,0.00
2019-03-31T02:30:03.327Z,0.00
2019-03-31T02:31:03.314Z,0.00
2019-03-31T02:32:15.334Z,0.00
2019-03-31T02:33:03.306Z,0.00
2019-03-31T02:34:03.305Z,0.00
2019-03-31T02:35:03.292Z,0.00
2019-03-31T02:36:03.284Z,0.00
2019-03-31T02:37:03.277Z,0.00
2019-03-31T02:38:03.275Z,0.00
2019-03-31T02:39:03.267Z,0.00
2019-03-31T02:40:03.264Z,0.00
2019-03-31T02:41:03.255Z,0.00
2019-03-31T02:42:03.250Z,0.00
2019-03-31T02:43:03.242Z,0.00
2019-03-31T02:44:03.239Z,0.00
2019-03-31T02:45:03.229Z,0.00
2019-03-31T02:46:03.227Z,0.00
2019-03-31T02:47:03.217Z,0.00
2019-03-31T02:48:03.227Z,0.00
2019-03-31T02:49:03.209Z,0.00
2019-03-31T02:50:03.205Z,0.00
2019-03-31T02:51:03.208Z,0.00
2019-03-31T02:52:03.199Z,0.00
2019-03-31T02:53:03.183Z,0.00
2019-03-31T02:54:03.199Z,0.00
2019-03-31T02:55:03.202Z,0.00
2019-03-31T02:56:03.161Z,0.00
2019-03-31T02:57:03.160Z,0.00
2019-03-31T02:58:03.167Z,0.00
2019-03-31T02:59:03.147Z,0.00
2019-03-31T03:00:03.139Z,0.00
2019-03-31T03:01:03.153Z,0.00
2019-03-31T03:02:03.151Z,0.00
2019-03-31T03:03:03.124Z,0.00
2019-03-31T03:04:03.138Z,0.00
2019-03-31T03:05:17.867Z,0.00
2019-03-31T03:06:03.118Z,0.00
2019-03-31T03:07:03.097Z,0.00
2019-03-31T03:08:03.104Z,0.00
2019-03-31T03:09:03.086Z,0.00
2019-03-31T03:10:03.085Z,0.00
2019-03-31T03:11:03.073Z,0.00
2019-03-31T03:12:03.068Z,0.00
2019-03-31T03:13:03.069Z,0.00
2019-03-31T03:14:03.073Z,0.00
2019-03-31T03:15:03.049Z,0.00
2019-03-31T03:16:03.042Z,0.00
2019-03-31T03:17:03.037Z,0.00
2019-03-31T03:18:03.037Z,0.00
2019-03-31T03:19:03.032Z,0.00
2019-03-31T03:20:03.014Z,0.00
2019-03-31T03:21:03.013Z,0.00
2019-03-31T03:22:03.011Z,0.00
2019-03-31T03:23:03.023Z,0.00
2019-03-31T03:24:03.004Z,0.00
2019-03-31T03:25:02.985Z,0.00
2019-03-31T03:26:02.976Z,0.00
2019-03-31T03:27:02.971Z,0.00
2019-03-31T03:28:02.971Z,0.00
2019-03-31T03:29:02.965Z,0.00
2019-03-31T03:30:02.987Z,0.00
2019-03-31T03:31:03.181Z,0.00
2019-03-31T03:32:02.957Z,0.00
2019-03-31T03:33:14.932Z,0.00
2019-03-31T03:34:02.933Z,0.00
2019-03-31T03:35:02.942Z,0.00
2019-03-31T03:36:02.917Z,0.00
2019-03-31T03:37:02.983Z,0.00
2019-03-31T03:38:02.899Z,0.00
2019-03-31T03:39:02.899Z,0.00
2019-03-31T03:40:02.890Z,0.00
2019-03-31T03:41:02.891Z,0.00
2019-03-31T03:42:02.898Z,0.00
2019-03-31T03:43:02.867Z,0.00
2019-03-31T03:44:03.023Z,0.00
2019-03-31T03:45:02.859Z,0.00
2019-03-31T03:46:02.849Z,0.00
2019-03-31T03:47:02.850Z,0.00
2019-03-31T03:48:02.842Z,0.00
2019-03-31T03:49:03.058Z,0.00
2019-03-31T03:50:02.868Z,0.00
2019-03-31T03:51:02.820Z,0.00
2019-03-31T03:52:02.845Z,0.00
2019-03-31T03:53:02.806Z,0.00
2019-03-31T03:54:02.805Z,0.00
2019-03-31T03:55:02.791Z,0.00
2019-03-31T03:56:02.787Z,0.00
2019-03-31T03:57:02.787Z,0.00
2019-03-31T03:58:02.781Z,0.00
2019-03-31T03:59:02.764Z,0.00
2019-03-31T04:00:02.760Z,0.00
2019-03-31T04:01:02.754Z,0.00
2019-03-31T04:02:02.748Z,0.00
2019-03-31T04:03:02.744Z,0.00
2019-03-31T04:04:02.731Z,0.00
2019-03-31T04:05:02.726Z,0.00
2019-03-31T04:06:02.723Z,0.00
2019-03-31T04:07:02.713Z,0.00
2019-03-31T04:08:02.704Z,0.00
2019-03-31T04:09:02.706Z,0.00
2019-03-31T04:10:02.692Z,0.00
2019-03-31T04:11:02.687Z,0.00
2019-03-31T04:12:02.682Z,0.00
2019-03-31T04:13:02.674Z,4.00
2019-03-31T04:14:02.669Z,4.00
2019-03-31T04:15:02.677Z,0.00
2019-03-31T04:16:02.653Z,4.00
2019-03-31T04:17:02.661Z,0.00
2019-03-31T04:18:02.645Z,4.00
2019-03-31T04:19:02.633Z,4.00
2019-03-31T04:20:02.626Z,4.00
2019-03-31T04:21:02.623Z,4.00
2019-03-31T04:22:02.615Z,4.00
2019-03-31T04:23:02.605Z,8.00
2019-03-31T04:24:02.600Z,12.00
2019-03-31T04:25:02.602Z,12.00
2019-03-31T04:26:02.604Z,12.00
2019-03-31T04:27:02.581Z,16.00
2019-03-31T04:28:02.572Z,20.00
2019-03-31T04:29:02.565Z,24.00
2019-03-31T04:30:02.567Z,24.00
2019-03-31T04:31:02.556Z,28.00
2019-03-31T04:32:02.545Z,36.00
2019-03-31T04:33:02.546Z,40.00
2019-03-31T04:34:02.539Z,44.00
2019-03-31T04:35:02.527Z,48.00
2019-03-31T04:36:02.518Z,56.00
2019-03-31T04:37:02.520Z,64.00
2019-03-31T04:38:02.505Z,76.00
2019-03-31T04:39:02.502Z,84.00
2019-03-31T04:40:02.487Z,92.00
2019-03-31T04:41:02.484Z,104.00
2019-03-31T04:42:02.476Z,116.00
2019-03-31T04:43:02.468Z,124.00
2019-03-31T04:44:02.460Z,140.00
2019-03-31T04:45:02.454Z,152.00
2019-03-31T04:46:02.450Z,168.00
2019-03-31T04:47:02.439Z,180.00
2019-03-31T04:48:02.439Z,196.00
2019-03-31T04:49:02.425Z,216.00
2019-03-31T04:50:02.420Z,232.00
2019-03-31T04:51:02.411Z,252.00
2019-03-31T04:52:02.406Z,272.00
2019-03-31T04:53:02.399Z,296.00
2019-03-31T04:54:02.479Z,320.00
2019-03-31T04:55:02.385Z,344.00
2019-03-31T04:56:02.380Z,368.00
2019-03-31T04:57:04.536Z,392.00
2019-03-31T04:58:02.367Z,416.00
2019-03-31T04:59:02.359Z,448.00
2019-03-31T05:00:02.350Z,476.00
2019-03-31T05:01:02.345Z,504.00
2019-03-31T05:02:02.335Z,532.00
2019-03-31T05:03:02.331Z,564.00
2019-03-31T05:04:05.102Z,592.00
2019-03-31T05:05:02.311Z,624.00
2019-03-31T05:06:02.310Z,648.00
2019-03-31T05:07:02.301Z,684.00
2019-03-31T05:08:02.294Z,716.00
2019-03-31T05:09:02.285Z,752.00
2019-03-31T05:10:02.278Z,784.00
2019-03-31T05:11:02.273Z,816.00
2019-03-31T05:12:02.264Z,868.00
2019-03-31T05:13:02.261Z,896.00
2019-03-31T05:14:02.250Z,936.00
2019-03-31T05:15:02.243Z,980.00
2019-03-31T05:16:02.298Z,1024.00
2019-03-31T05:17:02.241Z,1068.00
2019-03-31T05:18:02.221Z,1108.00
2019-03-31T05:19:02.219Z,1124.00
2019-03-31T05:20:02.208Z,1144.00
2019-03-31T05:21:02.200Z,1188.00
2019-03-31T05:22:02.195Z,1008.00
2019-03-31T05:23:02.187Z,1036.00
2019-03-31T05:24:02.178Z,1060.00
2019-03-31T05:25:02.171Z,1140.00
2019-03-31T05:26:02.168Z,956.00
2019-03-31T05:27:02.158Z,908.00
2019-03-31T05:28:02.182Z,844.00
2019-03-31T05:29:02.149Z,800.00
2019-03-31T05:30:02.141Z,880.00
2019-03-31T05:31:02.129Z,896.00
2019-03-31T05:32:02.122Z,896.00
2019-03-31T05:33:02.114Z,900.00
2019-03-31T05:34:02.106Z,892.00
2019-03-31T05:35:02.100Z,860.00
2019-03-31T05:36:02.095Z,856.00
2019-03-31T05:37:02.086Z,904.00
2019-03-31T05:38:02.081Z,872.00
2019-03-31T05:39:02.071Z,868.00
2019-03-31T05:40:02.066Z,976.00
2019-03-31T05:41:02.072Z,1032.00
2019-03-31T05:42:02.052Z,1116.00
2019-03-31T05:43:02.045Z,1156.00
2019-03-31T05:44:05.984Z,1012.00
2019-03-31T05:45:02.030Z,1032.00
2019-03-31T05:46:02.023Z,1028.00
2019-03-31T05:47:02.016Z,1104.00
2019-03-31T05:48:02.006Z,1168.00
2019-03-31T05:49:01.999Z,1160.00
2019-03-31T05:50:01.993Z,1176.00
2019-03-31T05:51:01.989Z,1312.00
2019-03-31T05:52:01.982Z,1376.00
2019-03-31T05:53:01.970Z,1268.00
2019-03-31T05:54:01.964Z,1232.00
2019-03-31T05:55:01.960Z,1136.00
2019-03-31T05:56:01.948Z,1168.00
2019-03-31T05:57:01.942Z,1204.00
2019-03-31T05:58:01.933Z,1492.00
2019-03-31T05:59:01.928Z,1596.00
2019-03-31T06:00:01.921Z,1680.00
2019-03-31T06:01:01.913Z,1468.00
2019-03-31T06:02:01.905Z,1432.00
2019-03-31T06:03:01.898Z,1436.00
2019-03-31T06:04:01.889Z,1508.00
2019-03-31T06:05:01.888Z,1508.00
2019-03-31T06:06:01.876Z,1452.00
2019-03-31T06:07:01.877Z,1624.00
2019-03-31T06:08:01.861Z,2208.00
2019-03-31T06:09:01.855Z,3048.00
2019-03-31T06:10:01.847Z,2488.00
2019-03-31T06:11:01.839Z,2512.00
2019-03-31T06:12:01.830Z,3056.00
2019-03-31T06:13:01.825Z,3904.00
2019-03-31T06:14:01.818Z,5016.00
2019-03-31T06:15:01.811Z,5660.00
2019-03-31T06:16:01.805Z,5752.00
2019-03-31T06:17:01.795Z,5560.00
2019-03-31T06:18:01.790Z,5224.00
2019-03-31T06:19:01.782Z,6548.00
2019-03-31T06:20:01.776Z,6656.00
2019-03-31T06:21:01.774Z,7388.00
2019-03-31T06:22:01.760Z,5996.00
2019-03-31T06:23:01.754Z,7200.00
2019-03-31T06:24:01.748Z,8300.00
2019-03-31T06:25:01.741Z,8332.00
2019-03-31T06:26:01.737Z,8576.00
2019-03-31T06:27:01.725Z,8816.00
2019-03-31T06:28:01.719Z,8600.00
2019-03-31T06:29:01.713Z,9052.00
2019-03-31T06:30:01.707Z,9792.00
2019-03-31T06:31:01.700Z,9792.00
2019-03-31T06:32:01.691Z,9636.00
2019-03-31T06:33:01.689Z,9324.00
2019-03-31T06:34:01.684Z,9080.00
2019-03-31T06:35:01.678Z,9148.00
2019-03-31T06:36:01.714Z,8668.00
2019-03-31T06:37:01.664Z,10632.00
2019-03-31T06:38:01.660Z,11412.00
2019-03-31T06:39:01.654Z,11024.00
2019-03-31T06:40:01.650Z,11084.00
2019-03-31T06:41:01.649Z,11764.00
2019-03-31T06:42:01.639Z,12352.00
2019-03-31T06:43:01.634Z,13356.00
2019-03-31T06:44:01.629Z,13524.00
2019-03-31T06:45:01.626Z,13940.00
2019-03-31T06:46:01.620Z,13040.00
2019-03-31T06:47:01.617Z,13960.00
2019-03-31T06:48:01.613Z,13540.00
2019-03-31T06:49:01.607Z,14400.00
2019-03-31T06:50:01.617Z,14036.00
2019-03-31T06:51:01.599Z,13388.00
2019-03-31T06:52:01.601Z,13964.00
2019-03-31T06:53:01.589Z,14624.00
2019-03-31T06:54:01.584Z,15744.00
2019-03-31T06:55:01.586Z,16448.00
2019-03-31T06:56:01.578Z,16960.00
2019-03-31T06:57:01.569Z,17952.00
2019-03-31T06:58:01.577Z,16608.00
2019-03-31T06:59:01.566Z,15424.00
2019-03-31T07:00:01.556Z,9796.00
2019-03-31T07:01:01.557Z,16288.00
2019-03-31T07:02:03.197Z,16224.00
2019-03-31T07:03:01.550Z,17088.00
2019-03-31T07:04:01.551Z,18176.00
2019-03-31T07:05:02.058Z,17632.00
2019-03-31T07:06:01.541Z,16992.00
2019-03-31T07:07:01.537Z,16512.00
2019-03-31T07:08:01.534Z,18432.00
2019-03-31T07:09:01.530Z,19072.00
2019-03-31T07:10:01.526Z,19104.00
2019-03-31T07:11:01.529Z,21056.00
2019-03-31T07:12:01.518Z,18880.00
2019-03-31T07:13:01.516Z,21760.00
2019-03-31T07:14:01.514Z,17856.00
2019-03-31T07:15:01.553Z,19776.00
2019-03-31T07:16:01.515Z,14732.00
2019-03-31T07:17:01.509Z,18240.00
2019-03-31T07:18:01.498Z,6620.00
2019-03-31T07:19:01.499Z,9316.00
2019-03-31T07:20:01.496Z,10356.00
2019-03-31T07:21:01.493Z,8968.00
2019-03-31T07:22:01.490Z,7756.00
2019-03-31T07:23:01.489Z,6608.00
2019-03-31T07:24:01.484Z,5912.00
2019-03-31T07:25:01.485Z,6132.00
2019-03-31T07:26:01.480Z,6580.00
2019-03-31T07:27:01.475Z,5916.00
2019-03-31T07:28:01.471Z,7120.00
2019-03-31T07:29:01.466Z,5560.00
2019-03-31T07:30:01.467Z,5524.00
2019-03-31T07:31:01.465Z,4472.00
2019-03-31T07:32:01.455Z,4232.00
2019-03-31T07:33:01.455Z,4868.00
2019-03-31T07:34:01.448Z,4676.00
2019-03-31T07:35:01.443Z,3900.00
2019-03-31T07:36:01.440Z,4128.00
2019-03-31T07:37:01.435Z,5492.00
2019-03-31T07:38:01.433Z,6300.00
2019-03-31T07:39:01.532Z,5828.00
2019-03-31T07:40:01.697Z,5228.00
2019-03-31T07:41:11.929Z,5028.00
2019-03-31T07:42:01.914Z,4388.00
2019-03-31T07:43:01.432Z,3784.00
2019-03-31T07:44:01.404Z,3620.00
2019-03-31T07:45:01.398Z,3552.00
2019-03-31T07:46:01.392Z,3568.00
2019-03-31T07:47:01.389Z,3040.00
2019-03-31T07:48:01.385Z,2620.00
2019-03-31T07:49:01.377Z,2716.00
2019-03-31T07:50:01.371Z,3088.00
2019-03-31T07:51:01.372Z,3868.00
2019-03-31T07:52:01.367Z,3724.00
2019-03-31T07:53:01.357Z,3236.00
2019-03-31T07:54:01.351Z,3136.00
2019-03-31T07:55:01.348Z,3648.00
2019-03-31T07:56:01.341Z,4532.00
2019-03-31T07:57:01.338Z,5680.00
2019-03-31T07:58:01.339Z,5920.00
2019-03-31T07:59:01.373Z,6272.00
2019-03-31T08:00:01.386Z,7560.00
2019-03-31T08:01:01.315Z,9084.00
2019-03-31T08:02:01.309Z,9536.00
2019-03-31T08:03:01.303Z,7184.00
2019-03-31T08:04:01.299Z,7012.00
2019-03-31T08:05:01.294Z,7988.00
2019-03-31T08:06:01.287Z,8948.00
2019-03-31T08:07:01.284Z,8620.00
2019-03-31T08:08:01.280Z,8544.00
2019-03-31T08:09:01.271Z,6640.00
2019-03-31T08:10:01.267Z,5188.00
2019-03-31T08:11:01.261Z,4500.00
2019-03-31T08:12:01.253Z,4964.00
2019-03-31T08:13:01.249Z,5200.00
2019-03-31T08:14:01.245Z,4808.00
2019-03-31T08:15:01.238Z,4200.00
2019-03-31T08:16:01.233Z,4520.00
2019-03-31T08:17:01.226Z,4968.00
2019-03-31T08:18:01.222Z,5652.00
2019-03-31T08:19:01.217Z,5356.00
2019-03-31T08:20:01.211Z,4900.00
2019-03-31T08:21:01.205Z,5864.00
2019-03-31T08:22:01.203Z,6232.00
2019-03-31T08:23:01.197Z,5920.00
2019-03-31T08:24:01.191Z,6144.00
2019-03-31T08:25:01.187Z,6660.00
2019-03-31T08:26:01.182Z,7520.00
2019-03-31T08:27:01.175Z,8476.00
2019-03-31T08:28:01.167Z,8512.00
2019-03-31T08:29:01.170Z,7736.00
2019-03-31T08:30:01.484Z,6992.00
2019-03-31T08:31:01.153Z,7120.00
2019-03-31T08:32:01.149Z,7472.00
2019-03-31T08:33:01.142Z,7964.00
2019-03-31T08:34:01.135Z,7740.00
2019-03-31T08:35:01.135Z,7624.00
2019-03-31T08:36:01.127Z,8952.00
2019-03-31T08:37:01.118Z,9852.00
2019-03-31T08:38:01.114Z,8200.00
2019-03-31T08:39:01.112Z,7492.00
2019-03-31T08:40:01.105Z,8280.00
2019-03-31T08:41:01.100Z,9004.00
2019-03-31T08:42:01.096Z,9632.00
2019-03-31T08:43:01.087Z,7920.00
2019-03-31T08:44:01.085Z,6788.00
2019-03-31T08:45:01.076Z,6512.00
2019-03-31T08:46:01.072Z,7540.00
2019-03-31T08:47:01.066Z,7608.00
2019-03-31T08:48:01.061Z,6320.00
2019-03-31T08:49:01.054Z,4876.00
2019-03-31T08:50:02.331Z,4056.00
2019-03-31T08:51:01.047Z,3568.00
2019-03-31T08:52:01.041Z,3480.00
2019-03-31T08:53:01.041Z,3476.00
2019-03-31T08:54:01.029Z,3472.00
2019-03-31T08:55:01.028Z,4020.00
2019-03-31T08:56:01.017Z,4632.00
2019-03-31T08:57:01.013Z,4912.00
2019-03-31T08:58:01.009Z,4820.00
2019-03-31T08:59:01.001Z,4868.00
2019-03-31T09:00:00.996Z,4576.00
2019-03-31T09:01:00.991Z,4084.00
2019-03-31T09:02:03.346Z,3432.00
2019-03-31T09:03:00.987Z,2896.00
2019-03-31T09:04:00.972Z,2500.00
2019-03-31T09:05:00.967Z,2292.00
2019-03-31T09:06:02.522Z,2212.00
2019-03-31T09:07:00.962Z,2056.00
2019-03-31T09:08:00.948Z,1912.00
2019-03-31T09:09:00.944Z,1832.00
2019-03-31T09:10:00.942Z,1880.00
2019-03-31T09:11:00.936Z,2048.00
2019-03-31T09:12:00.929Z,2188.00
2019-03-31T09:13:00.922Z,2280.00
2019-03-31T09:14:00.916Z,2432.00
2019-03-31T09:15:00.913Z,2612.00
2019-03-31T09:16:00.905Z,2796.00
2019-03-31T09:17:00.900Z,3120.00
2019-03-31T09:18:00.892Z,3248.00
2019-03-31T09:19:00.886Z,3064.00
2019-03-31T09:20:00.878Z,3176.00
2019-03-31T09:21:00.877Z,3300.00
2019-03-31T09:22:00.867Z,3156.00
2019-03-31T09:23:00.868Z,3016.00
2019-03-31T09:24:00.856Z,2764.00
2019-03-31T09:25:00.859Z,2592.00
2019-03-31T09:26:00.843Z,2536.00
2019-03-31T09:27:00.839Z,2564.00
2019-03-31T09:28:00.831Z,2612.00
2019-03-31T09:29:00.824Z,2564.00
2019-03-31T09:30:00.820Z,2668.00
2019-03-31T09:31:00.814Z,2980.00
2019-03-31T09:32:00.805Z,3288.00
2019-03-31T09:33:00.801Z,3428.00
2019-03-31T09:34:00.793Z,3540.00
2019-03-31T09:35:00.788Z,3732.00
2019-03-31T09:36:15.130Z,4016.00
2019-03-31T09:37:00.778Z,4080.00
2019-03-31T09:38:00.767Z,4132.00
2019-03-31T09:39:00.764Z,4364.00
2019-03-31T09:40:00.755Z,4432.00
2019-03-31T09:41:00.751Z,4604.00
2019-03-31T09:42:00.743Z,4876.00
2019-03-31T09:43:00.737Z,5232.00
2019-03-31T09:44:00.730Z,5520.00
2019-03-31T09:45:00.723Z,5792.00
2019-03-31T09:46:00.717Z,6156.00
2019-03-31T09:47:00.718Z,6492.00
2019-03-31T09:49:32.306Z,6932.00
2019-03-31T09:50:32.290Z,6836.00
2019-03-31T09:52:25.156Z,6016.00
2019-03-31T09:53:25.145Z,6024.00
2019-03-31T09:55:18.034Z,5424.00
2019-03-31T09:56:18.005Z,4868.00
2019-03-31T09:58:10.902Z,4636.00
2019-03-31T09:59:10.879Z,5288.00
2019-03-31T10:01:03.751Z,7372.00
2019-03-31T10:02:03.740Z,7792.00
2019-03-31T10:03:56.621Z,5576.00
2019-03-31T10:04:56.600Z,5176.00
2019-03-31T10:06:49.478Z,6096.00
2019-03-31T10:07:49.470Z,7752.00
2019-03-31T10:09:42.347Z,6812.00
2019-03-31T10:10:42.326Z,6872.00
2019-03-31T10:12:35.212Z,5988.00
2019-03-31T10:13:35.189Z,6368.00
2019-03-31T10:15:28.074Z,6996.00
2019-03-31T10:16:28.050Z,7332.00
2019-03-31T10:18:20.939Z,7428.00
2019-03-31T10:19:20.917Z,7508.00
2019-03-31T10:21:13.791Z,8116.00
2019-03-31T10:22:13.780Z,8364.00
2019-03-31T10:24:06.667Z,7348.00
2019-03-31T10:25:06.652Z,7284.00
2019-03-31T10:26:59.520Z,7012.00
2019-03-31T10:27:59.508Z,6740.00
2019-03-31T10:29:52.394Z,7232.00
2019-03-31T10:30:52.374Z,7616.00
2019-03-31T10:32:45.249Z,7488.00
2019-03-31T10:33:45.237Z,7288.00
2019-03-31T10:35:38.120Z,6840.00
2019-03-31T10:36:44.358Z,5884.00
2019-03-31T10:38:30.984Z,4792.00
2019-03-31T10:39:30.963Z,4324.00
2019-03-31T10:41:23.842Z,4020.00
2019-03-31T10:42:23.828Z,4040.00
2019-03-31T10:44:16.711Z,4484.00
2019-03-31T10:45:16.690Z,4952.00
2019-03-31T10:47:09.569Z,6056.00
2019-03-31T10:48:20.147Z,6556.00
2019-03-31T10:50:02.441Z,7320.00
2019-03-31T10:51:02.424Z,7556.00
2019-03-31T10:52:55.300Z,8292.00
2019-03-31T10:53:55.285Z,8736.00
2019-03-31T10:55:48.691Z,9452.00
2019-03-31T10:56:48.670Z,9256.00
2019-03-31T10:58:42.067Z,7824.00
2019-03-31T10:59:42.050Z,7060.00
2019-03-31T11:01:34.955Z,5756.00
2019-03-31T11:02:34.937Z,5272.00
2019-03-31T11:04:27.823Z,4112.00
2019-03-31T11:05:27.803Z,3700.00
2019-03-31T11:07:20.685Z,3768.00
2019-03-31T11:08:20.674Z,3968.00
2019-03-31T11:10:13.563Z,3920.00
2019-03-31T11:11:13.539Z,3912.00
2019-03-31T11:13:06.809Z,4072.00
2019-03-31T11:14:06.795Z,4096.00
2019-03-31T11:15:59.677Z,3776.00
2019-03-31T11:16:59.658Z,3656.00
2019-03-31T11:18:52.545Z,3988.00
2019-03-31T11:19:52.522Z,4244.00
2019-03-31T11:21:45.397Z,4416.00
2019-03-31T11:22:45.384Z,4684.00
2019-03-31T11:24:38.273Z,4804.00
2019-03-31T11:25:38.255Z,4860.00
2019-03-31T11:27:31.123Z,4708.00
2019-03-31T11:28:31.115Z,4564.00
2019-03-31T11:30:24.002Z,4288.00
2019-03-31T11:31:23.979Z,4408.00
2019-03-31T11:32:23.978Z,4428.00
2019-03-31T11:33:23.966Z,4116.00
2019-03-31T11:34:23.964Z,3804.00
2019-03-31T11:35:23.959Z,3804.00
2019-03-31T11:36:23.958Z,4060.00
2019-03-31T11:37:23.948Z,4288.00
2019-03-31T11:38:23.948Z,4160.00
2019-03-31T11:39:23.937Z,3740.00
2019-03-31T11:40:23.933Z,3364.00
2019-03-31T11:41:23.928Z,3052.00
2019-03-31T11:42:23.923Z,3076.00
2019-03-31T11:43:23.920Z,3096.00
2019-03-31T11:44:27.425Z,3344.00
2019-03-31T11:45:23.926Z,3728.00
2019-03-31T11:46:23.907Z,4472.00
2019-03-31T11:47:23.898Z,4916.00
2019-03-31T11:48:23.894Z,5272.00
2019-03-31T11:49:23.887Z,5896.00
2019-03-31T11:50:23.883Z,6080.00
2019-03-31T11:51:23.877Z,6084.00
2019-03-31T11:52:23.874Z,5680.00
2019-03-31T11:53:23.870Z,4964.00
2019-03-31T11:54:23.866Z,4744.00
2019-03-31T11:55:23.859Z,4460.00
2019-03-31T11:56:23.856Z,4328.00
2019-03-31T11:57:23.849Z,4192.00
2019-03-31T11:58:23.848Z,4280.00
2019-03-31T11:59:23.840Z,4612.00
2019-03-31T12:00:23.835Z,5136.00
2019-03-31T12:01:23.829Z,5416.00
2019-03-31T12:02:27.299Z,5560.00
2019-03-31T12:03:23.820Z,5952.00
2019-03-31T12:04:23.815Z,6528.00
2019-03-31T12:05:23.812Z,6608.00
2019-03-31T12:06:23.806Z,6272.00
2019-03-31T12:07:28.201Z,6548.00
2019-03-31T12:08:23.801Z,6072.00
2019-03-31T12:09:23.796Z,6224.00
2019-03-31T12:10:23.997Z,6404.00
2019-03-31T12:11:23.856Z,6688.00
2019-03-31T12:12:24.216Z,7184.00
2019-03-31T12:13:23.777Z,7744.00
2019-03-31T12:14:23.771Z,7856.00
2019-03-31T12:15:23.768Z,7920.00
2019-03-31T12:16:23.765Z,8108.00
2019-03-31T12:17:23.761Z,7740.00
2019-03-31T12:18:23.760Z,7824.00
2019-03-31T12:19:23.751Z,7524.00
2019-03-31T12:20:23.748Z,7432.00
2019-03-31T12:21:23.744Z,7196.00
2019-03-31T12:22:23.741Z,6992.00
2019-03-31T12:23:23.736Z,6980.00
2019-03-31T12:24:23.732Z,6928.00
2019-03-31T12:25:23.728Z,7328.00
2019-03-31T12:26:23.744Z,7144.00
2019-03-31T12:27:23.722Z,7524.00
2019-03-31T12:28:23.716Z,7128.00
2019-03-31T12:29:23.712Z,6752.00
2019-03-31T12:30:23.707Z,6740.00
2019-03-31T12:31:23.707Z,6708.00
2019-03-31T12:32:23.702Z,6540.00
2019-03-31T12:33:23.696Z,6336.00
2019-03-31T12:34:23.692Z,5996.00
2019-03-31T12:35:23.691Z,5404.00
2019-03-31T12:36:23.690Z,4496.00
2019-03-31T12:37:23.681Z,4112.00
2019-03-31T12:38:23.679Z,4396.00
2019-03-31T12:39:23.672Z,4724.00
2019-03-31T12:40:23.675Z,5184.00
2019-03-31T12:41:23.665Z,5568.00
2019-03-31T12:42:23.664Z,5872.00
2019-03-31T12:43:23.661Z,5888.00
2019-03-31T12:44:25.220Z,5616.00
2019-03-31T12:45:23.653Z,5316.00
2019-03-31T12:46:23.646Z,5248.00
2019-03-31T12:47:23.642Z,5316.00
2019-03-31T12:48:23.638Z,5196.00
2019-03-31T12:49:23.633Z,4956.00
2019-03-31T12:50:23.631Z,4732.00
2019-03-31T12:51:23.628Z,4880.00
2019-03-31T12:52:23.621Z,4636.00
2019-03-31T12:53:23.617Z,3972.00
2019-03-31T12:54:23.614Z,3864.00
2019-03-31T12:55:23.610Z,3628.00
2019-03-31T12:56:23.610Z,3356.00
2019-03-31T12:57:23.601Z,3116.00
2019-03-31T12:58:23.598Z,3148.00
2019-03-31T12:59:26.960Z,3216.00
2019-03-31T13:00:23.590Z,3272.00
2019-03-31T13:01:23.588Z,3380.00
2019-03-31T13:02:23.583Z,3764.00
2019-03-31T13:03:23.581Z,3828.00